| time (UTC) | temp F | wind direction | speed MPH | gust MPH | rain 1hr in | rain 24hr in | rain mn in | humidity % | barometer mb |
| 20260510204635 | 39 | 12 | 1.0 | 3.0 | 0.00 | 0.13 | 0.13 | 82 | 1013.5 |
| 20260510204134 | 39 | 13 | 2.0 | 3.0 | 0.00 | 0.13 | 0.13 | 82 | 1013.5 |
| 20260510203635 | 39 | 12 | 0.0 | 2.0 | 0.00 | 0.13 | 0.13 | 82 | 1013.5 |
| 20260510203135 | 39 | 13 | 2.0 | 3.0 | 0.00 | 0.13 | 0.13 | 82 | 1013.5 |
| 20260510202634 | 39 | 13 | 1.0 | 2.0 | 0.00 | 0.13 | 0.13 | 82 | 1013.5 |
| 20260510201634 | 39 | 12 | 1.0 | 3.0 | 0.00 | 0.13 | 0.13 | 82 | 1013.5 |
| 20260510200634 | 39 | 12 | 1.0 | 2.0 | 0.00 | 0.13 | 0.13 | 82 | 1013.6 |
| 20260510200134 | 39 | 13 | 2.0 | 3.0 | 0.00 | 0.13 | 0.13 | 82 | 1013.7 |
| 20260510195634 | 39 | 13 | 2.0 | 3.0 | 0.00 | 0.13 | 0.13 | 82 | 1013.6 |
| 20260510195134 | 39 | 13 | 2.0 | 3.0 | 0.00 | 0.13 | 0.13 | 82 | 1013.7 |
| 20260510194134 | 39 | 13 | 2.0 | 5.0 | 0.00 | 0.13 | 0.13 | 82 | 1013.8 |
| 20260510193634 | 39 | 13 | 2.0 | 5.0 | 0.00 | 0.13 | 0.13 | 82 | 1013.7 |
| 20260510193135 | 39 | 12 | 2.0 | 3.0 | 0.00 | 0.13 | 0.13 | 82 | 1013.8 |
| 20260510192635 | 39 | 12 | 2.0 | 5.0 | 0.01 | 0.13 | 0.13 | 82 | 1013.9 |
| 20260510192135 | 39 | 12 | 2.0 | 3.0 | 0.01 | 0.13 | 0.13 | 82 | 1013.8 |
| 20260510191634 | 39 | 12 | 2.0 | 6.0 | 0.01 | 0.13 | 0.13 | 82 | 1013.8 |
| 20260510191134 | 39 | 12 | 3.0 | 5.0 | 0.01 | 0.13 | 0.13 | 82 | 1013.8 |
| 20260510190134 | 39 | 12 | 3.0 | 6.0 | 0.01 | 0.13 | 0.13 | 82 | 1013.7 |
| 20260510185634 | 39 | 12 | 3.0 | 5.0 | 0.01 | 0.13 | 0.13 | 82 | 1013.6 |
| 20260510185135 | 39 | 12 | 4.0 | 5.0 | 0.01 | 0.13 | 0.13 | 82 | 1013.6 |
| 20260510183634 | 39 | 14 | 3.0 | 6.0 | 0.01 | 0.13 | 0.13 | 82 | 1013.5 |
| 20260510183134 | 39 | 12 | 3.0 | 6.0 | 0.01 | 0.13 | 0.13 | 82 | 1013.6 |
| 20260510182634 | 39 | 14 | 3.0 | 6.0 | 0.00 | 0.12 | 0.12 | 82 | 1013.6 |
| 20260510182134 | 39 | 14 | 5.0 | 7.0 | 0.01 | 0.12 | 0.12 | 82 | 1013.5 |
| 20260510181634 | 39 | 14 | 5.0 | 7.0 | 0.01 | 0.12 | 0.12 | 82 | 1013.4 |
| 20260510181134 | 39 | 14 | 4.0 | 7.0 | 0.01 | 0.12 | 0.12 | 82 | 1013.4 |
| 20260510180634 | 39 | 12 | 5.0 | 7.0 | 0.01 | 0.12 | 0.12 | 82 | 1013.4 |
| 20260510180135 | 39 | 13 | 5.0 | 8.0 | 0.01 | 0.12 | 0.12 | 82 | 1013.4 |
| 20260510175635 | 39 | 12 | 5.0 | 7.0 | 0.02 | 0.12 | 0.12 | 81 | 1013.4 |
| 20260510175134 | 39 | 11 | 5.0 | 10.0 | 0.02 | 0.12 | 0.12 | 82 | 1013.4 |
| 20260510174634 | 38 | 12 | 5.0 | 8.0 | 0.03 | 0.12 | 0.12 | 82 | 1013.4 |
| 20260510174135 | 38 | 11 | 6.0 | 12.0 | 0.03 | 0.12 | 0.12 | 82 | 1013.4 |
| 20260510173634 | 38 | 10 | 5.0 | 10.0 | 0.03 | 0.12 | 0.12 | 82 | 1013.5 |
| 20260510173134 | 38 | 11 | 7.0 | 12.0 | 0.04 | 0.12 | 0.12 | 82 | 1013.5 |
| 20260510172635 | 39 | 6 | 6.0 | 12.0 | 0.05 | 0.12 | 0.12 | 82 | 1013.6 |
| 20260510172134 | 39 | 10 | 6.0 | 12.0 | 0.06 | 0.11 | 0.11 | 82 | 1013.7 |
| 20260510171634 | 39 | 11 | 6.0 | 8.0 | 0.06 | 0.11 | 0.11 | 82 | 1013.7 |
| 20260510170634 | 39 | 11 | 7.0 | 9.0 | 0.07 | 0.11 | 0.11 | 81 | 1013.7 |
| 20260510170134 | 39 | 11 | 5.0 | 7.0 | 0.07 | 0.11 | 0.11 | 82 | 1013.8 |
| 20260510165134 | 39 | 11 | 3.0 | 7.0 | 0.06 | 0.09 | 0.09 | 82 | 1013.8 |
| 20260510164635 | 39 | 11 | 4.0 | 6.0 | 0.06 | 0.09 | 0.09 | 82 | 1014.0 |
| 20260510164134 | 39 | 12 | 4.0 | 7.0 | 0.06 | 0.09 | 0.09 | 82 | 1014.0 |
| 20260510163634 | 39 | 12 | 4.0 | 8.0 | 0.06 | 0.09 | 0.09 | 82 | 1014.0 |
| 20260510163134 | 39 | 13 | 3.0 | 6.0 | 0.05 | 0.08 | 0.08 | 82 | 1014.0 |
| 20260510162634 | 39 | 11 | 4.0 | 12.0 | 0.04 | 0.07 | 0.07 | 82 | 1013.9 |
| 20260510161634 | 40 | 11 | 2.0 | 9.0 | 0.02 | 0.05 | 0.05 | 82 | 1014.1 |
| 20260510161134 | 39 | 8 | 5.0 | 8.0 | 0.02 | 0.05 | 0.05 | 82 | 1014.1 |
| 20260510160634 | 40 | 9 | 6.0 | 10.0 | 0.02 | 0.04 | 0.04 | 82 | 1014.1 |
| 20260510160135 | 40 | 10 | 5.0 | 8.0 | 0.02 | 0.04 | 0.04 | 83 | 1014.1 |
| 20260510155134 | 40 | 10 | 5.0 | 8.0 | 0.02 | 0.04 | 0.04 | 82 | 1014.3 |
| 20260510154134 | 40 | 13 | 3.0 | 7.0 | 0.02 | 0.03 | 0.03 | 84 | 1014.4 |
| 20260510153634 | 39 | 12 | 5.0 | 8.0 | 0.02 | 0.03 | 0.03 | 85 | 1014.4 |
| 20260510152634 | 39 | 11 | 6.0 | 10.0 | 0.02 | 0.03 | 0.03 | 87 | 1014.5 |
| 20260510152134 | 39 | 12 | 3.0 | 7.0 | 0.02 | 0.03 | 0.03 | 87 | 1014.4 |
| 20260510151634 | 39 | 12 | 5.0 | 8.0 | 0.02 | 0.03 | 0.03 | 87 | 1014.4 |
| 20260510151134 | 39 | 12 | 4.0 | 8.0 | 0.02 | 0.03 | 0.03 | 86 | 1014.4 |
| 20260510150634 | 40 | 12 | 5.0 | 7.0 | 0.01 | 0.02 | 0.02 | 86 | 1014.4 |
| 20260510150134 | 40 | 12 | 5.0 | 8.0 | 0.02 | 0.02 | 0.02 | 84 | 1014.4 |
| 20260510145634 | 40 | 13 | 5.0 | 7.0 | 0.02 | 0.02 | 0.02 | 83 | 1014.4 |
| 20260510145134 | 41 | 14 | 3.0 | 5.0 | 0.02 | 0.02 | 0.02 | 83 | 1014.4 |
| 20260510144134 | 40 | 13 | 3.0 | 6.0 | 0.01 | 0.02 | 0.02 | 85 | 1014.4 |
| 20260510143634 | 40 | 12 | 5.0 | 7.0 | 0.01 | 0.02 | 0.02 | 87 | 1014.5 |
| 20260510143134 | 41 | 12 | 3.0 | 6.0 | 0.01 | 0.02 | 0.02 | 85 | 1014.4 |
| 20260510142134 | 41 | 13 | 4.0 | 7.0 | 0.02 | 0.02 | 0.02 | 84 | 1014.5 |
| 20260510141634 | 41 | 12 | 3.0 | 6.0 | 0.02 | 0.02 | 0.02 | 84 | 1014.5 |
| 20260510141134 | 41 | 12 | 5.0 | 8.0 | 0.02 | 0.02 | 0.02 | 84 | 1014.6 |
| 20260510140634 | 42 | 12 | 4.0 | 9.0 | 0.02 | 0.02 | 0.02 | 84 | 1014.6 |
| 20260510140134 | 42 | 13 | 3.0 | 7.0 | 0.01 | 0.01 | 0.01 | 84 | 1014.7 |
| 20260510135634 | 42 | 13 | 4.0 | 7.0 | 0.01 | 0.01 | 0.01 | 84 | 1014.6 |
| 20260510135134 | 42 | 13 | 3.0 | 5.0 | 0.01 | 0.01 | 0.01 | 84 | 1014.7 |
| 20260510134634 | 42 | 12 | 3.0 | 6.0 | 0.01 | 0.01 | 0.01 | 84 | 1014.8 |
| 20260510134133 | 42 | 14 | 2.0 | 3.0 | 0.01 | 0.01 | 0.01 | 85 | 1014.9 |
| 20260510133634 | 42 | 14 | 3.0 | 6.0 | 0.01 | 0.01 | 0.01 | 87 | 1015.0 |
| 20260510133134 | 43 | 14 | 4.0 | 6.0 | 0.01 | 0.01 | 0.01 | 87 | 1015.0 |
| 20260510132634 | 43 | 14 | 3.0 | 7.0 | 0.01 | 0.01 | 0.01 | 87 | 1015.1 |
| 20260510132133 | 43 | 14 | 2.0 | 3.0 | 0.00 | 0.00 | 0.00 | 88 | 1015.1 |
| 20260510131634 | 43 | 15 | 2.0 | 3.0 | 0.00 | 0.00 | 0.00 | 88 | 1015.2 |
| 20260510131134 | 43 | 15 | 2.0 | 5.0 | 0.00 | 0.00 | 0.00 | 88 | 1015.2 |
| 20260510130633 | 43 | 14 | 2.0 | 5.0 | 0.00 | 0.00 | 0.00 | 87 | 1015.3 |
| 20260510130134 | 43 | 15 | 3.0 | 6.0 | 0.00 | 0.00 | 0.00 | 86 | 1015.3 |
| 20260510125634 | 42 | 14 | 2.0 | 5.0 | 0.00 | 0.00 | 0.00 | 88 | 1015.3 |
| 20260510125137 | 42 | 14 | 2.0 | 3.0 | 0.00 | 0.00 | 0.00 | 88 | 1015.3 |
| 20260510124633 | 42 | 15 | 2.0 | 5.0 | 0.00 | 0.00 | 0.00 | 87 | 1015.4 |
| 20260510124133 | 42 | 15 | 3.0 | 5.0 | 0.00 | 0.00 | 0.00 | 88 | 1015.4 |
| 20260510123634 | 42 | 14 | 1.0 | 3.0 | 0.00 | 0.00 | 0.00 | 88 | 1015.4 |
| 20260510123134 | 42 | 15 | 2.0 | 3.0 | 0.00 | 0.00 | 0.00 | 88 | 1015.5 |
| 20260510122133 | 43 | 14 | 2.0 | 3.0 | 0.00 | 0.00 | 0.00 | 87 | 1015.5 |
| 20260510121634 | 42 | 14 | 2.0 | 3.0 | 0.00 | 0.00 | 0.00 | 88 | 1015.5 |
| 20260510121134 | 42 | 15 | 2.0 | 6.0 | 0.00 | 0.00 | 0.00 | 88 | 1015.6 |
| 20260510120633 | 42 | 14 | 3.0 | 6.0 | 0.00 | 0.00 | 0.00 | 87 | 1015.6 |
| 20260510120133 | 42 | 15 | 3.0 | 5.0 | 0.00 | 0.00 | 0.00 | 87 | 1015.6 |
| 20260510115634 | 42 | 14 | 3.0 | 5.0 | 0.00 | 0.00 | 0.00 | 87 | 1015.6 |
| 20260510115133 | 42 | 15 | 2.0 | 5.0 | 0.00 | 0.00 | 0.00 | 86 | 1015.6 |
| 20260510114634 | 42 | 14 | 3.0 | 6.0 | 0.00 | 0.00 | 0.00 | 85 | 1015.7 |
| 20260510114134 | 42 | 15 | 2.0 | 6.0 | 0.00 | 0.00 | 0.00 | 85 | 1015.7 |
| 20260510113633 | 42 | 14 | 4.0 | 7.0 | 0.00 | 0.00 | 0.00 | 85 | 1015.6 |
| 20260510113134 | 42 | 15 | 5.0 | 7.0 | 0.00 | 0.00 | 0.00 | 84 | 1015.6 |
| 20260510112134 | 42 | 14 | 5.0 | 7.0 | 0.00 | 0.00 | 0.00 | 84 | 1015.6 |
| 20260510111634 | 42 | 14 | 3.0 | 7.0 | 0.00 | 0.00 | 0.00 | 84 | 1015.5 |
| 20260510111134 | 42 | 14 | 5.0 | 7.0 | 0.00 | 0.00 | 0.00 | 84 | 1015.6 |
| 20260510110634 | 42 | 15 | 5.0 | 7.0 | 0.00 | 0.00 | 0.00 | 85 | 1015.6 |
| 20260510110133 | 42 | 14 | 3.0 | 6.0 | 0.00 | 0.00 | 0.00 | 86 | 1015.5 |
| 20260510105634 | 42 | 14 | 5.0 | 7.0 | 0.00 | 0.00 | 0.00 | 87 | 1015.6 |
| 20260510105134 | 42 | 14 | 4.0 | 6.0 | 0.00 | 0.00 | 0.00 | 88 | 1015.6 |
| 20260510104634 | 42 | 15 | 5.0 | 7.0 | 0.00 | 0.00 | 0.00 | 88 | 1015.6 |
| 20260510104134 | 42 | 14 | 6.0 | 8.0 | 0.00 | 0.00 | 0.00 | 87 | 1015.7 |
| 20260510103634 | 42 | 13 | 6.0 | 8.0 | 0.00 | 0.00 | 0.00 | 87 | 1015.7 |
| 20260510103134 | 42 | 13 | 3.0 | 8.0 | 0.00 | 0.00 | 0.00 | 87 | 1015.7 |
| 20260510102633 | 42 | 14 | 4.0 | 7.0 | 0.00 | 0.00 | 0.00 | 87 | 1015.7 |
| 20260510102134 | 42 | 14 | 5.0 | 7.0 | 0.00 | 0.00 | 0.00 | 86 | 1015.7 |
| 20260510101634 | 42 | 14 | 5.0 | 7.0 | 0.00 | 0.00 | 0.00 | 85 | 1015.6 |
| 20260510101133 | 42 | 14 | 5.0 | 8.0 | 0.00 | 0.00 | 0.00 | 86 | 1015.6 |
| 20260510100134 | 43 | 13 | 6.0 | 9.0 | 0.00 | 0.00 | 0.00 | 86 | 1015.6 |
| 20260510095633 | 43 | 14 | 5.0 | 8.0 | 0.00 | 0.00 | 0.00 | 86 | 1015.6 |
| 20260510095133 | 44 | 14 | 5.0 | 9.0 | 0.00 | 0.00 | 0.00 | 87 | 1015.7 |
| 20260510094633 | 44 | 13 | 5.0 | 9.0 | 0.00 | 0.00 | 0.00 | 87 | 1015.7 |
| 20260510094133 | 45 | 14 | 6.0 | 10.0 | 0.00 | 0.00 | 0.00 | 88 | 1015.6 |
| 20260510093134 | 45 | 14 | 5.0 | 9.0 | 0.00 | 0.00 | 0.00 | 86 | 1015.8 |
| 20260510092633 | 45 | 14 | 5.0 | 8.0 | 0.00 | 0.00 | 0.00 | 88 | 1015.7 |
| 20260510092134 | 45 | 14 | 4.0 | 8.0 | 0.00 | 0.00 | 0.00 | 87 | 1015.8 |
| 20260510090633 | 44 | 14 | 2.0 | 3.0 | 0.00 | 0.00 | 0.00 | 87 | 1015.8 |
| 20260510090134 | 44 | 14 | 2.0 | 5.0 | 0.00 | 0.00 | 0.00 | 87 | 1015.9 |
| 20260510085633 | 43 | 14 | 3.0 | 5.0 | 0.00 | 0.00 | 0.00 | 87 | 1015.9 |
| 20260510085134 | 43 | 14 | 2.0 | 3.0 | 0.00 | 0.00 | 0.00 | 87 | 1015.9 |
| 20260510084634 | 42 | 14 | 2.0 | 3.0 | 0.00 | 0.00 | 0.00 | 84 | 1015.9 |
| 20260510084134 | 42 | 14 | 3.0 | 6.0 | 0.00 | 0.00 | 0.00 | 85 | 1016.0 |
| 20260510083134 | 43 | 14 | 2.0 | 6.0 | 0.00 | 0.00 | 0.00 | 84 | 1015.9 |
| 20260510082633 | 43 | 13 | 4.0 | 7.0 | 0.00 | 0.00 | 0.00 | 84 | 1015.9 |
| 20260510082133 | 43 | 14 | 3.0 | 6.0 | 0.00 | 0.00 | 0.00 | 84 | 1015.9 |
| 20260510081634 | 44 | 13 | 3.0 | 7.0 | 0.00 | 0.00 | 0.00 | 84 | 1015.9 |
| 20260510081133 | 44 | 14 | 3.0 | 8.0 | 0.00 | 0.00 | 0.00 | 83 | 1015.9 |
| 20260510080634 | 44 | 14 | 3.0 | 7.0 | 0.00 | 0.00 | 0.00 | 82 | 1015.9 |
| 20260510080134 | 44 | 14 | 2.0 | 6.0 | 0.00 | 0.00 | 0.00 | 82 | 1015.8 |
| 20260510075633 | 44 | 13 | 2.0 | 5.0 | 0.00 | 0.00 | 0.00 | 82 | 1015.8 |
| 20260510074136 | 44 | 15 | 3.0 | 7.0 | 0.00 | 0.00 | 0.00 | 82 | 1015.7 |
| 20260510073634 | 44 | 14 | 2.0 | 6.0 | 0.00 | 0.00 | 0.00 | 82 | 1015.8 |
| 20260510072633 | 44 | 15 | 2.0 | 6.0 | 0.00 | 0.00 | 0.00 | 82 | 1015.8 |
| 20260510072134 | 44 | 14 | 3.0 | 7.0 | 0.00 | 0.00 | 0.00 | 84 | 1015.7 |
| 20260510071633 | 44 | 15 | 4.0 | 9.0 | 0.00 | 0.00 | 0.00 | 85 | 1015.7 |
| 20260510071134 | 44 | 14 | 4.0 | 8.0 | 0.00 | 0.00 | 0.00 | 86 | 1015.7 |
| 20260510070634 | 45 | 13 | 5.0 | 9.0 | 0.00 | 0.00 | 0.00 | 87 | 1015.7 |
| 20260510070134 | 46 | 13 | 5.0 | 7.0 | 0.00 | 0.00 | 0.00 | 87 | 1015.7 |
| 20260510065633 | 47 | 15 | 3.0 | 6.0 | 0.00 | 0.00 | 0.00 | 88 | 1015.6 |
| 20260510065134 | 47 | 15 | 3.0 | 5.0 | 0.00 | 0.00 | 0.00 | 88 | 1015.7 |
| 20260510064633 | 48 | 16 | 3.0 | 6.0 | 0.00 | 0.00 | 0.00 | 87 | 1015.7 |
| 20260510063634 | 48 | 16 | 2.0 | 7.0 | 0.00 | 0.00 | 0.00 | 87 | 1015.7 |
| 20260510062633 | 45 | 18 | 2.0 | 5.0 | 0.00 | 0.00 | 0.00 | 82 | 1015.8 |
| 20260510062133 | 45 | 18 | 3.0 | 5.0 | 0.00 | 0.00 | 0.00 | 84 | 1015.7 |
| 20260510061634 | 44 | 17 | 3.0 | 5.0 | 0.00 | 0.00 | 0.00 | 85 | 1015.8 |
| 20260510061133 | 44 | 18 | 2.0 | 3.0 | 0.00 | 0.00 | 0.00 | 84 | 1015.8 |
| 20260510060134 | 44 | 18 | 0.0 | 2.0 | 0.00 | 0.00 | 0.00 | 88 | 1015.8 |
| 20260510055633 | 43 | 18 | 2.0 | 3.0 | 0.00 | 0.00 | 0.00 | 88 | 1015.8 |
| 20260510055133 | 43 | 17 | 2.0 | 3.0 | 0.00 | 0.00 | 0.00 | 88 | 1015.9 |
| 20260510054634 | 44 | 17 | 0.0 | 3.0 | 0.00 | 0.00 | 0.00 | 88 | 1016.0 |
| 20260510054134 | 44 | 17 | 0.0 | 0.0 | 0.00 | 0.00 | 0.00 | 87 | 1016.0 |
| 20260510053633 | 43 | 17 | 0.0 | 0.0 | 0.00 | 0.00 | 0.00 | 87 | 1016.1 |
| 20260510053133 | 43 | 17 | 0.0 | 0.0 | 0.00 | 0.00 | 0.00 | 87 | 1016.1 |
| 20260510052133 | 42 | 17 | 0.0 | 0.0 | 0.00 | 0.00 | 0.00 | 86 | 1015.9 |
| 20260510051634 | 42 | 17 | 0.0 | 0.0 | 0.00 | 0.00 | 0.00 | 84 | 1015.9 |
| 20260510050134 | 42 | 17 | 0.0 | 0.0 | 0.00 | 0.00 | 0.00 | 82 | 1015.9 |
| 20260510045633 | 42 | 16 | 0.0 | 0.0 | 0.00 | 0.00 | 0.00 | 81 | 1015.9 |
| 20260510044633 | 42 | 17 | 0.0 | 0.0 | 0.00 | 0.00 | 0.00 | 81 | 1015.9 |
| 20260510044133 | 42 | 17 | 0.0 | 0.0 | 0.00 | 0.00 | 0.00 | 81 | 1016.0 |
| 20260510043634 | 42 | 18 | 0.0 | 2.0 | 0.00 | 0.00 | 0.00 | 81 | 1016.1 |
| 20260510043134 | 42 | 17 | 2.0 | 5.0 | 0.00 | 0.00 | 0.00 | 81 | 1016.2 |
| 20260510042634 | 42 | 15 | 3.0 | 5.0 | 0.00 | 0.00 | 0.00 | 81 | 1016.2 |
| 20260510042134 | 42 | 15 | 1.0 | 3.0 | 0.00 | 0.00 | 0.00 | 81 | 1016.2 |
| 20260510041633 | 42 | 13 | 4.0 | 6.0 | 0.00 | 0.00 | 0.00 | 82 | 1016.4 |
| 20260510041133 | 42 | 18 | 2.0 | 5.0 | 0.00 | 0.00 | 0.00 | 82 | 1016.4 |
| 20260510040633 | 42 | 17 | 2.0 | 3.0 | 0.00 | 0.00 | 0.00 | 83 | 1016.5 |
| 20260510040133 | 42 | 16 | 2.0 | 5.0 | 0.00 | 0.00 | 0.00 | 84 | 1016.5 |
| 20260510035634 | 42 | 18 | 1.0 | 5.0 | 0.00 | 0.00 | 0.00 | 85 | 1016.5 |
| 20260510035133 | 42 | 18 | 2.0 | 5.0 | 0.00 | 0.00 | 0.00 | 87 | 1016.5 |
| 20260510034633 | 42 | 18 | 0.0 | 0.0 | 0.00 | 0.00 | 0.00 | 86 | 1016.4 |
| 20260510034133 | 42 | 16 | 0.0 | 0.0 | 0.00 | 0.00 | 0.00 | 86 | 1016.4 |
| 20260510033633 | 42 | 18 | 0.0 | 0.0 | 0.00 | 0.00 | 0.00 | 87 | 1016.5 |
| 20260510033133 | 42 | 18 | 0.0 | 0.0 | 0.00 | 0.00 | 0.00 | 87 | 1016.5 |
| 20260510032633 | 42 | 18 | 0.0 | 0.0 | 0.00 | 0.00 | 0.00 | 88 | 1016.6 |
| 20260510032133 | 42 | 18 | 0.0 | 0.0 | 0.00 | 0.00 | 0.00 | 88 | 1016.8 |
| 20260510031633 | 42 | 18 | 0.0 | 0.0 | 0.00 | 0.00 | 0.00 | 88 | 1016.8 |
| 20260510031133 | 42 | 18 | 0.0 | 0.0 | 0.00 | 0.00 | 0.00 | 87 | 1016.8 |
| 20260510030633 | 42 | 18 | 0.0 | 0.0 | 0.00 | 0.00 | 0.00 | 87 | 1016.8 |
| 20260510030133 | 41 | 19 | 0.0 | 0.0 | 0.00 | 0.00 | 0.00 | 87 | 1016.9 |
| 20260510025633 | 41 | 18 | 0.0 | 1.0 | 0.00 | 0.00 | 0.00 | 86 | 1017.0 |
| 20260510024633 | 41 | 16 | 2.0 | 3.0 | 0.00 | 0.00 | 0.00 | 85 | 1017.0 |
| 20260510024133 | 41 | 18 | 0.0 | 0.0 | 0.00 | 0.00 | 0.00 | 85 | 1017.1 |
| 20260510023633 | 41 | 18 | 0.0 | 0.0 | 0.00 | 0.00 | 0.00 | 84 | 1017.1 |
| 20260510023134 | 41 | 17 | 0.0 | 0.0 | 0.00 | 0.00 | 0.00 | 85 | 1017.2 |
| 20260510022134 | 42 | 18 | 0.0 | 0.0 | 0.00 | 0.00 | 0.00 | 83 | 1017.3 |
| 20260510021633 | 42 | 17 | 0.0 | 1.0 | 0.00 | 0.00 | 0.00 | 83 | 1017.3 |
| 20260510021133 | 42 | 17 | 0.0 | 0.0 | 0.00 | 0.00 | 0.00 | 83 | 1017.2 |
| 20260510020633 | 42 | 17 | 0.0 | 1.0 | 0.00 | 0.00 | 0.00 | 82 | 1017.2 |
| 20260510020133 | 42 | 19 | 2.0 | 3.0 | 0.00 | 0.00 | 0.00 | 81 | 1017.3 |
| 20260510015633 | 42 | 19 | 2.0 | 5.0 | 0.00 | 0.00 | 0.00 | 81 | 1017.3 |
| 20260510015133 | 42 | 15 | 3.0 | 5.0 | 0.00 | 0.00 | 0.00 | 81 | 1017.4 |
| 20260510014633 | 42 | 19 | 2.0 | 3.0 | 0.00 | 0.00 | 0.00 | 81 | 1017.5 |
| 20260510014133 | 42 | 17 | 3.0 | 5.0 | 0.00 | 0.00 | 0.00 | 81 | 1017.6 |
| 20260510013633 | 42 | 18 | 3.0 | 5.0 | 0.00 | 0.00 | 0.00 | 81 | 1017.6 |
| 20260510013133 | 42 | 19 | 2.0 | 5.0 | 0.00 | 0.00 | 0.00 | 81 | 1017.6 |
| 20260510012633 | 42 | 19 | 3.0 | 6.0 | 0.00 | 0.00 | 0.00 | 81 | 1017.6 |
| 20260510012134 | 43 | 13 | 2.0 | 3.0 | 0.00 | 0.00 | 0.00 | 81 | 1017.5 |
| 20260510011633 | 43 | 17 | 1.0 | 2.0 | 0.00 | 0.00 | 0.00 | 81 | 1017.5 |
| 20260510011134 | 43 | 18 | 1.0 | 3.0 | 0.00 | 0.00 | 0.00 | 81 | 1017.6 |
| 20260510010633 | 43 | 18 | 2.0 | 3.0 | 0.00 | 0.00 | 0.00 | 81 | 1017.6 |
| 20260510010134 | 43 | 18 | 2.0 | 3.0 | 0.00 | 0.00 | 0.00 | 81 | 1017.7 |
| 20260510005633 | 43 | 18 | 2.0 | 3.0 | 0.00 | 0.00 | 0.00 | 82 | 1017.7 |
| 20260510005133 | 43 | 19 | 3.0 | 5.0 | 0.00 | 0.00 | 0.00 | 82 | 1017.7 |
| 20260510004634 | 43 | 18 | 1.0 | 3.0 | 0.00 | 0.00 | 0.00 | 82 | 1017.7 |
| 20260510004133 | 43 | 19 | 1.0 | 2.0 | 0.00 | 0.00 | 0.00 | 82 | 1017.8 |
| 20260510003633 | 43 | 19 | 1.0 | 3.0 | 0.00 | 0.00 | 0.00 | 82 | 1017.9 |
| 20260510003133 | 43 | 19 | 2.0 | 3.0 | 0.00 | 0.00 | 0.00 | 82 | 1017.8 |
| 20260510002633 | 44 | 19 | 1.0 | 3.0 | 0.00 | 0.00 | 0.00 | 82 | 1017.8 |
| 20260510002133 | 44 | 18 | 2.0 | 3.0 | 0.00 | 0.00 | 0.00 | 83 | 1017.8 |
| 20260510001633 | 44 | 19 | 1.0 | 6.0 | 0.00 | 0.00 | 0.00 | 84 | 1017.9 |
| 20260510001133 | 44 | 19 | 0.0 | 1.0 | 0.00 | 0.00 | 0.00 | 84 | 1017.9 |
| 20260510000633 | 44 | 19 | 0.0 | 1.0 | 0.00 | 0.00 | 0.00 | 84 | 1017.9 |
| 20260509235632 | 44 | 19 | 1.0 | 3.0 | 0.00 | 0.00 | 0.00 | 85 | 1017.9 |
| 20260509234633 | 43 | 19 | 2.0 | 3.0 | 0.00 | 0.00 | 0.00 | 87 | 1018.0 |
| 20260509234133 | 43 | 19 | 1.0 | 2.0 | 0.00 | 0.00 | 0.00 | 86 | 1018.0 |
| 20260509233633 | 43 | 19 | 1.0 | 2.0 | 0.00 | 0.00 | 0.00 | 88 | 1018.1 |
| 20260509233133 | 43 | 19 | 2.0 | 3.0 | 0.00 | 0.00 | 0.00 | 87 | 1018.1 |
| 20260509231633 | 42 | 19 | 0.0 | 0.0 | 0.00 | 0.00 | 0.00 | 87 | 1018.2 |
| 20260509231133 | 42 | 19 | 0.0 | 0.0 | 0.00 | 0.00 | 0.00 | 88 | 1018.2 |
| 20260509230633 | 43 | 19 | 0.0 | 0.0 | 0.00 | 0.00 | 0.00 | 88 | 1018.3 |
| 20260509230133 | 43 | 18 | 0.0 | 0.0 | 0.00 | 0.00 | 0.00 | 88 | 1018.3 |
| 20260509224633 | 44 | 19 | 0.0 | 3.0 | 0.00 | 0.00 | 0.00 | 88 | 1018.3 |
| 20260509223633 | 43 | 19 | 0.0 | 0.0 | 0.00 | 0.00 | 0.00 | 88 | 1018.3 |
| 20260509223133 | 43 | 19 | 0.0 | 1.0 | 0.00 | 0.00 | 0.00 | 88 | 1018.3 |
| 20260509222633 | 43 | 18 | 0.0 | 1.0 | 0.00 | 0.00 | 0.00 | 88 | 1018.4 |
| 20260509222133 | 43 | 19 | 1.0 | 3.0 | 0.00 | 0.00 | 0.00 | 88 | 1018.5 |
| 20260509221633 | 43 | 19 | 0.0 | 1.0 | 0.00 | 0.00 | 0.00 | 88 | 1018.4 |
| 20260509221133 | 43 | 18 | 0.0 | 1.0 | 0.00 | 0.00 | 0.00 | 88 | 1018.4 |
| 20260509220633 | 43 | 18 | 1.0 | 2.0 | 0.00 | 0.00 | 0.00 | 88 | 1018.4 |
| 20260509220133 | 43 | 18 | 0.0 | 0.0 | 0.00 | 0.00 | 0.00 | 88 | 1018.4 |
| 20260509215132 | 43 | 18 | 0.0 | 2.0 | 0.00 | 0.00 | 0.00 | 88 | 1018.4 |
| 20260509214133 | 44 | 18 | 0.0 | 2.0 | 0.00 | 0.00 | 0.00 | 87 | 1018.4 |
| 20260509212632 | 44 | 19 | 0.0 | 1.0 | 0.00 | 0.00 | 0.00 | 88 | 1018.3 |
| 20260509212133 | 44 | 19 | 0.0 | 1.0 | 0.00 | 0.00 | 0.00 | 88 | 1018.3 |
| 20260509210133 | 44 | 19 | 2.0 | 3.0 | 0.00 | 0.00 | 0.00 | 88 | 1018.4 |
| 20260509205632 | 44 | 19 | 2.0 | 3.0 | 0.00 | 0.00 | 0.00 | 88 | 1018.3 |